sensor_id;sensor_type;location;lat;lon;timestamp;P1;durP1;ratioP1;P2;durP2;ratioP2
12760;SDS011;6444;49.742;6.114;2023-05-07T00:00:57;6.37;;;5.28;;
12760;SDS011;6444;49.742;6.114;2023-05-07T00:03:24;9.23;;;8.02;;
12760;SDS011;6444;49.742;6.114;2023-05-07T00:05:51;11.38;;;6.80;;
12760;SDS011;6444;49.742;6.114;2023-05-07T00:08:17;8.70;;;6.47;;
12760;SDS011;6444;49.742;6.114;2023-05-07T00:10:44;6.78;;;6.18;;
12760;SDS011;6444;49.742;6.114;2023-05-07T00:13:11;9.20;;;6.30;;
12760;SDS011;6444;49.742;6.114;2023-05-07T00:15:38;9.25;;;6.00;;
12760;SDS011;6444;49.742;6.114;2023-05-07T00:18:05;6.35;;;5.75;;
12760;SDS011;6444;49.742;6.114;2023-05-07T00:20:31;7.25;;;6.28;;
12760;SDS011;6444;49.742;6.114;2023-05-07T00:22:58;6.60;;;6.00;;
12760;SDS011;6444;49.742;6.114;2023-05-07T00:25:25;6.47;;;5.87;;
12760;SDS011;6444;49.742;6.114;2023-05-07T00:27:52;10.90;;;6.75;;
12760;SDS011;6444;49.742;6.114;2023-05-07T00:30:18;8.18;;;6.95;;
12760;SDS011;6444;49.742;6.114;2023-05-07T00:32:45;8.50;;;7.60;;
12760;SDS011;6444;49.742;6.114;2023-05-07T00:35:12;8.43;;;6.70;;
12760;SDS011;6444;49.742;6.114;2023-05-07T00:37:38;8.82;;;7.62;;
12760;SDS011;6444;49.742;6.114;2023-05-07T00:40:05;8.27;;;6.32;;
12760;SDS011;6444;49.742;6.114;2023-05-07T00:42:35;8.43;;;7.43;;
12760;SDS011;6444;49.742;6.114;2023-05-07T00:45:02;8.25;;;7.45;;
12760;SDS011;6444;49.742;6.114;2023-05-07T00:47:28;8.68;;;6.95;;
12760;SDS011;6444;49.742;6.114;2023-05-07T00:49:55;9.80;;;7.32;;
12760;SDS011;6444;49.742;6.114;2023-05-07T00:52:22;9.68;;;7.45;;
12760;SDS011;6444;49.742;6.114;2023-05-07T00:54:49;8.52;;;7.03;;
12760;SDS011;6444;49.742;6.114;2023-05-07T00:57:16;8.48;;;7.57;;
12760;SDS011;6444;49.742;6.114;2023-05-07T00:59:42;9.10;;;7.80;;
12760;SDS011;6444;49.742;6.114;2023-05-07T01:02:09;12.20;;;8.23;;
12760;SDS011;6444;49.742;6.114;2023-05-07T01:04:36;8.82;;;7.87;;
12760;SDS011;6444;49.742;6.114;2023-05-07T01:07:03;10.15;;;7.87;;
12760;SDS011;6444;49.742;6.114;2023-05-07T01:09:30;8.95;;;7.12;;
12760;SDS011;6444;49.742;6.114;2023-05-07T01:11:56;9.50;;;7.50;;
12760;SDS011;6444;49.742;6.114;2023-05-07T01:14:23;8.15;;;7.32;;
12760;SDS011;6444;49.742;6.114;2023-05-07T01:16:49;8.98;;;7.12;;
12760;SDS011;6444;49.742;6.114;2023-05-07T01:19:19;10.75;;;7.57;;
12760;SDS011;6444;49.742;6.114;2023-05-07T01:21:46;8.27;;;7.47;;
12760;SDS011;6444;49.742;6.114;2023-05-07T01:24:12;9.13;;;7.60;;
12760;SDS011;6444;49.742;6.114;2023-05-07T01:26:39;8.80;;;7.90;;
12760;SDS011;6444;49.742;6.114;2023-05-07T01:29:05;10.25;;;8.50;;
12760;SDS011;6444;49.742;6.114;2023-05-07T01:31:33;9.52;;;8.57;;
12760;SDS011;6444;49.742;6.114;2023-05-07T01:33:59;9.00;;;8.10;;
12760;SDS011;6444;49.742;6.114;2023-05-07T01:36:26;8.73;;;7.87;;
12760;SDS011;6444;49.742;6.114;2023-05-07T01:38:53;7.60;;;6.80;;
12760;SDS011;6444;49.742;6.114;2023-05-07T01:41:19;8.00;;;6.93;;
12760;SDS011;6444;49.742;6.114;2023-05-07T01:43:46;8.40;;;7.60;;
12760;SDS011;6444;49.742;6.114;2023-05-07T01:46:12;11.90;;;8.15;;
12760;SDS011;6444;49.742;6.114;2023-05-07T01:48:39;9.30;;;7.60;;
12760;SDS011;6444;49.742;6.114;2023-05-07T01:51:06;8.80;;;7.00;;
12760;SDS011;6444;49.742;6.114;2023-05-07T01:53:36;10.90;;;9.80;;
12760;SDS011;6444;49.742;6.114;2023-05-07T01:56:05;9.95;;;8.35;;
12760;SDS011;6444;49.742;6.114;2023-05-07T01:58:31;8.68;;;7.78;;
12760;SDS011;6444;49.742;6.114;2023-05-07T02:00:58;10.23;;;7.22;;
12760;SDS011;6444;49.742;6.114;2023-05-07T02:03:24;10.32;;;7.68;;
12760;SDS011;6444;49.742;6.114;2023-05-07T02:05:51;10.27;;;8.38;;
12760;SDS011;6444;49.742;6.114;2023-05-07T02:08:18;11.75;;;10.60;;
12760;SDS011;6444;49.742;6.114;2023-05-07T02:10:44;8.80;;;7.87;;
12760;SDS011;6444;49.742;6.114;2023-05-07T02:13:11;7.95;;;6.62;;
12760;SDS011;6444;49.742;6.114;2023-05-07T02:15:38;10.45;;;7.32;;
12760;SDS011;6444;49.742;6.114;2023-05-07T02:18:05;11.25;;;7.40;;
12760;SDS011;6444;49.742;6.114;2023-05-07T02:20:31;7.60;;;6.90;;
12760;SDS011;6444;49.742;6.114;2023-05-07T02:22:57;10.50;;;8.57;;
12760;SDS011;6444;49.742;6.114;2023-05-07T02:25:24;7.97;;;7.15;;
12760;SDS011;6444;49.742;6.114;2023-05-07T02:27:51;9.00;;;7.62;;
12760;SDS011;6444;49.742;6.114;2023-05-07T02:30:17;8.10;;;6.80;;
12760;SDS011;6444;49.742;6.114;2023-05-07T02:32:44;12.52;;;8.77;;
12760;SDS011;6444;49.742;6.114;2023-05-07T02:35:11;9.43;;;7.60;;
12760;SDS011;6444;49.742;6.114;2023-05-07T02:37:37;8.38;;;7.18;;
12760;SDS011;6444;49.742;6.114;2023-05-07T02:40:04;9.87;;;8.13;;
12760;SDS011;6444;49.742;6.114;2023-05-07T02:42:32;11.65;;;8.07;;
12760;SDS011;6444;49.742;6.114;2023-05-07T02:44:58;11.63;;;7.97;;
12760;SDS011;6444;49.742;6.114;2023-05-07T02:47:25;11.33;;;10.03;;
12760;SDS011;6444;49.742;6.114;2023-05-07T02:49:54;9.13;;;7.50;;
12760;SDS011;6444;49.742;6.114;2023-05-07T02:52:21;9.07;;;7.25;;
12760;SDS011;6444;49.742;6.114;2023-05-07T02:54:48;9.80;;;8.80;;
12760;SDS011;6444;49.742;6.114;2023-05-07T02:57:15;9.00;;;7.10;;
12760;SDS011;6444;49.742;6.114;2023-05-07T02:59:42;8.85;;;7.95;;
12760;SDS011;6444;49.742;6.114;2023-05-07T03:02:08;10.73;;;9.57;;
12760;SDS011;6444;49.742;6.114;2023-05-07T03:04:35;11.52;;;9.02;;
12760;SDS011;6444;49.742;6.114;2023-05-07T03:07:02;13.43;;;10.43;;
12760;SDS011;6444;49.742;6.114;2023-05-07T03:09:28;11.40;;;10.23;;
12760;SDS011;6444;49.742;6.114;2023-05-07T03:11:56;11.25;;;9.77;;
12760;SDS011;6444;49.742;6.114;2023-05-07T03:14:22;10.17;;;8.93;;
12760;SDS011;6444;49.742;6.114;2023-05-07T03:16:48;12.03;;;9.37;;
12760;SDS011;6444;49.742;6.114;2023-05-07T03:19:15;13.43;;;10.27;;
12760;SDS011;6444;49.742;6.114;2023-05-07T03:21:42;13.20;;;9.85;;
12760;SDS011;6444;49.742;6.114;2023-05-07T03:24:09;12.40;;;10.80;;
12760;SDS011;6444;49.742;6.114;2023-05-07T03:26:35;14.95;;;10.07;;
12760;SDS011;6444;49.742;6.114;2023-05-07T03:29:02;10.27;;;8.93;;
12760;SDS011;6444;49.742;6.114;2023-05-07T03:31:29;15.50;;;13.85;;
12760;SDS011;6444;49.742;6.114;2023-05-07T03:33:56;11.98;;;10.65;;
12760;SDS011;6444;49.742;6.114;2023-05-07T03:36:23;14.85;;;11.07;;
12760;SDS011;6444;49.742;6.114;2023-05-07T03:38:49;13.73;;;11.02;;
12760;SDS011;6444;49.742;6.114;2023-05-07T03:41:16;10.27;;;8.85;;
12760;SDS011;6444;49.742;6.114;2023-05-07T03:43:43;10.65;;;8.95;;
12760;SDS011;6444;49.742;6.114;2023-05-07T03:46:09;13.60;;;10.48;;
12760;SDS011;6444;49.742;6.114;2023-05-07T03:48:36;13.75;;;12.35;;
12760;SDS011;6444;49.742;6.114;2023-05-07T03:51:03;14.15;;;12.30;;
12760;SDS011;6444;49.742;6.114;2023-05-07T03:53:29;12.13;;;8.98;;
12760;SDS011;6444;49.742;6.114;2023-05-07T03:55:57;9.27;;;8.27;;
12760;SDS011;6444;49.742;6.114;2023-05-07T03:58:23;9.38;;;8.07;;
12760;SDS011;6444;49.742;6.114;2023-05-07T04:00:50;10.95;;;8.00;;
12760;SDS011;6444;49.742;6.114;2023-05-07T04:03:16;13.73;;;11.60;;
12760;SDS011;6444;49.742;6.114;2023-05-07T04:05:43;15.13;;;12.95;;
12760;SDS011;6444;49.742;6.114;2023-05-07T04:08:10;11.30;;;10.10;;
12760;SDS011;6444;49.742;6.114;2023-05-07T04:10:36;12.25;;;10.70;;
12760;SDS011;6444;49.742;6.114;2023-05-07T04:13:04;8.48;;;7.65;;
12760;SDS011;6444;49.742;6.114;2023-05-07T04:15:30;8.25;;;7.45;;
12760;SDS011;6444;49.742;6.114;2023-05-07T04:17:57;10.25;;;8.68;;
12760;SDS011;6444;49.742;6.114;2023-05-07T04:20:24;13.00;;;11.50;;
12760;SDS011;6444;49.742;6.114;2023-05-07T04:22:50;10.20;;;8.85;;
12760;SDS011;6444;49.742;6.114;2023-05-07T04:25:18;13.10;;;9.13;;
12760;SDS011;6444;49.742;6.114;2023-05-07T04:27:44;10.95;;;9.43;;
12760;SDS011;6444;49.742;6.114;2023-05-07T04:30:11;17.65;;;13.50;;
12760;SDS011;6444;49.742;6.114;2023-05-07T04:32:38;25.02;;;13.13;;
12760;SDS011;6444;49.742;6.114;2023-05-07T04:35:05;24.80;;;13.27;;
12760;SDS011;6444;49.742;6.114;2023-05-07T04:37:32;30.83;;;13.15;;
12760;SDS011;6444;49.742;6.114;2023-05-07T04:39:59;23.85;;;16.15;;
12760;SDS011;6444;49.742;6.114;2023-05-07T04:42:25;39.03;;;14.87;;
12760;SDS011;6444;49.742;6.114;2023-05-07T04:44:52;19.42;;;13.00;;
12760;SDS011;6444;49.742;6.114;2023-05-07T04:47:19;18.20;;;12.02;;
12760;SDS011;6444;49.742;6.114;2023-05-07T04:49:46;32.97;;;10.93;;
12760;SDS011;6444;49.742;6.114;2023-05-07T04:52:12;13.13;;;8.98;;
12760;SDS011;6444;49.742;6.114;2023-05-07T04:54:38;11.15;;;8.20;;
12760;SDS011;6444;49.742;6.114;2023-05-07T04:57:06;16.83;;;10.20;;
12760;SDS011;6444;49.742;6.114;2023-05-07T04:59:33;20.75;;;10.02;;
12760;SDS011;6444;49.742;6.114;2023-05-07T05:01:59;21.67;;;10.73;;
12760;SDS011;6444;49.742;6.114;2023-05-07T05:04:26;11.48;;;9.25;;
12760;SDS011;6444;49.742;6.114;2023-05-07T05:06:52;11.52;;;10.13;;
12760;SDS011;6444;49.742;6.114;2023-05-07T05:09:19;10.13;;;8.90;;
12760;SDS011;6444;49.742;6.114;2023-05-07T05:11:46;11.48;;;7.53;;
12760;SDS011;6444;49.742;6.114;2023-05-07T05:14:12;7.12;;;6.45;;
12760;SDS011;6444;49.742;6.114;2023-05-07T05:16:39;7.05;;;6.00;;
12760;SDS011;6444;49.742;6.114;2023-05-07T05:19:06;5.37;;;4.80;;
12760;SDS011;6444;49.742;6.114;2023-05-07T05:21:33;5.00;;;4.55;;
12760;SDS011;6444;49.742;6.114;2023-05-07T05:24:00;4.55;;;4.10;;
12760;SDS011;6444;49.742;6.114;2023-05-07T05:26:26;3.83;;;3.53;;
12760;SDS011;6444;49.742;6.114;2023-05-07T05:28:53;4.25;;;3.85;;
12760;SDS011;6444;49.742;6.114;2023-05-07T05:31:20;5.15;;;3.70;;
12760;SDS011;6444;49.742;6.114;2023-05-07T05:33:47;4.93;;;3.83;;
12760;SDS011;6444;49.742;6.114;2023-05-07T05:36:13;3.50;;;3.20;;
12760;SDS011;6444;49.742;6.114;2023-05-07T05:38:40;3.53;;;3.22;;
12760;SDS011;6444;49.742;6.114;2023-05-07T05:41:07;3.25;;;2.92;;
12760;SDS011;6444;49.742;6.114;2023-05-07T05:43:34;3.78;;;3.47;;
12760;SDS011;6444;49.742;6.114;2023-05-07T05:46:01;4.90;;;3.53;;
12760;SDS011;6444;49.742;6.114;2023-05-07T05:48:28;3.80;;;3.50;;
12760;SDS011;6444;49.742;6.114;2023-05-07T05:50:54;4.82;;;3.70;;
12760;SDS011;6444;49.742;6.114;2023-05-07T05:53:21;4.07;;;3.78;;
12760;SDS011;6444;49.742;6.114;2023-05-07T05:55:48;3.70;;;3.40;;
12760;SDS011;6444;49.742;6.114;2023-05-07T05:58:15;4.07;;;3.47;;
12760;SDS011;6444;49.742;6.114;2023-05-07T06:00:41;4.00;;;3.70;;
12760;SDS011;6444;49.742;6.114;2023-05-07T06:03:08;4.10;;;3.33;;
12760;SDS011;6444;49.742;6.114;2023-05-07T06:05:35;3.80;;;3.50;;
12760;SDS011;6444;49.742;6.114;2023-05-07T06:08:02;3.62;;;3.33;;
12760;SDS011;6444;49.742;6.114;2023-05-07T06:10:29;3.85;;;3.55;;
12760;SDS011;6444;49.742;6.114;2023-05-07T06:12:55;3.83;;;3.12;;
12760;SDS011;6444;49.742;6.114;2023-05-07T06:15:22;3.80;;;3.50;;
12760;SDS011;6444;49.742;6.114;2023-05-07T06:17:49;3.70;;;3.40;;
12760;SDS011;6444;49.742;6.114;2023-05-07T06:20:15;3.60;;;3.28;;
12760;SDS011;6444;49.742;6.114;2023-05-07T06:22:42;3.40;;;3.10;;
12760;SDS011;6444;49.742;6.114;2023-05-07T06:25:08;3.53;;;3.22;;
12760;SDS011;6444;49.742;6.114;2023-05-07T06:27:35;4.25;;;3.60;;
12760;SDS011;6444;49.742;6.114;2023-05-07T06:30:02;3.95;;;3.65;;
12760;SDS011;6444;49.742;6.114;2023-05-07T06:32:28;3.35;;;3.05;;
12760;SDS011;6444;49.742;6.114;2023-05-07T06:34:55;3.45;;;3.15;;
12760;SDS011;6444;49.742;6.114;2023-05-07T06:37:22;3.85;;;3.10;;
12760;SDS011;6444;49.742;6.114;2023-05-07T06:39:48;3.50;;;3.20;;
12760;SDS011;6444;49.742;6.114;2023-05-07T06:42:16;5.03;;;3.10;;
12760;SDS011;6444;49.742;6.114;2023-05-07T06:44:43;3.70;;;3.30;;
12760;SDS011;6444;49.742;6.114;2023-05-07T06:47:10;3.67;;;3.28;;
12760;SDS011;6444;49.742;6.114;2023-05-07T06:49:37;3.50;;;3.20;;
12760;SDS011;6444;49.742;6.114;2023-05-07T06:52:03;3.55;;;3.28;;
12760;SDS011;6444;49.742;6.114;2023-05-07T06:54:30;3.87;;;3.22;;
12760;SDS011;6444;49.742;6.114;2023-05-07T06:56:56;4.03;;;3.12;;
12760;SDS011;6444;49.742;6.114;2023-05-07T06:59:23;4.27;;;3.87;;
12760;SDS011;6444;49.742;6.114;2023-05-07T07:01:50;5.50;;;3.70;;
12760;SDS011;6444;49.742;6.114;2023-05-07T07:04:16;3.85;;;3.45;;
12760;SDS011;6444;49.742;6.114;2023-05-07T07:06:43;3.83;;;3.35;;
12760;SDS011;6444;49.742;6.114;2023-05-07T07:09:10;3.97;;;3.62;;
12760;SDS011;6444;49.742;6.114;2023-05-07T07:11:36;3.15;;;2.90;;
12760;SDS011;6444;49.742;6.114;2023-05-07T07:14:04;3.37;;;2.97;;
12760;SDS011;6444;49.742;6.114;2023-05-07T07:16:30;3.85;;;3.22;;
12760;SDS011;6444;49.742;6.114;2023-05-07T07:18:57;4.43;;;3.10;;
12760;SDS011;6444;49.742;6.114;2023-05-07T07:21:24;4.03;;;3.40;;
12760;SDS011;6444;49.742;6.114;2023-05-07T07:23:51;3.15;;;2.85;;
12760;SDS011;6444;49.742;6.114;2023-05-07T07:26:18;6.45;;;5.40;;
12760;SDS011;6444;49.742;6.114;2023-05-07T07:28:44;3.72;;;3.42;;
12760;SDS011;6444;49.742;6.114;2023-05-07T07:31:11;3.35;;;3.03;;
12760;SDS011;6444;49.742;6.114;2023-05-07T07:33:37;3.28;;;2.97;;
12760;SDS011;6444;49.742;6.114;2023-05-07T07:36:05;4.20;;;3.30;;
12760;SDS011;6444;49.742;6.114;2023-05-07T07:38:31;4.75;;;3.17;;
12760;SDS011;6444;49.742;6.114;2023-05-07T07:40:58;3.53;;;3.15;;
12760;SDS011;6444;49.742;6.114;2023-05-07T07:43:25;3.00;;;2.70;;
12760;SDS011;6444;49.742;6.114;2023-05-07T07:45:51;2.70;;;2.50;;
12760;SDS011;6444;49.742;6.114;2023-05-07T07:48:18;3.17;;;2.85;;
12760;SDS011;6444;49.742;6.114;2023-05-07T07:50:48;3.60;;;2.83;;
12760;SDS011;6444;49.742;6.114;2023-05-07T07:53:12;3.00;;;2.37;;
12760;SDS011;6444;49.742;6.114;2023-05-07T07:55:39;3.22;;;2.55;;
12760;SDS011;6444;49.742;6.114;2023-05-07T07:58:05;2.72;;;2.50;;
12760;SDS011;6444;49.742;6.114;2023-05-07T08:00:33;3.78;;;2.42;;
12760;SDS011;6444;49.742;6.114;2023-05-07T08:02:59;3.67;;;2.30;;
12760;SDS011;6444;49.742;6.114;2023-05-07T08:05:26;2.08;;;1.87;;
12760;SDS011;6444;49.742;6.114;2023-05-07T08:07:52;3.15;;;2.25;;
12760;SDS011;6444;49.742;6.114;2023-05-07T08:10:19;3.28;;;2.62;;
12760;SDS011;6444;49.742;6.114;2023-05-07T08:12:49;2.45;;;1.85;;
12760;SDS011;6444;49.742;6.114;2023-05-07T08:15:15;2.85;;;2.12;;
12760;SDS011;6444;49.742;6.114;2023-05-07T08:17:42;4.70;;;3.03;;
12760;SDS011;6444;49.742;6.114;2023-05-07T08:20:08;11.25;;;8.45;;
12760;SDS011;6444;49.742;6.114;2023-05-07T08:22:36;28.50;;;25.50;;
12760;SDS011;6444;49.742;6.114;2023-05-07T08:25:02;25.65;;;21.67;;
12760;SDS011;6444;49.742;6.114;2023-05-07T08:27:30;5.05;;;4.30;;
12760;SDS011;6444;49.742;6.114;2023-05-07T08:29:56;17.35;;;12.50;;
12760;SDS011;6444;49.742;6.114;2023-05-07T08:32:23;18.92;;;14.98;;
12760;SDS011;6444;49.742;6.114;2023-05-07T08:34:50;6.03;;;2.92;;
12760;SDS011;6444;49.742;6.114;2023-05-07T08:37:17;4.97;;;3.90;;
12760;SDS011;6444;49.742;6.114;2023-05-07T08:39:44;12.98;;;11.63;;
12760;SDS011;6444;49.742;6.114;2023-05-07T08:42:11;31.62;;;27.65;;
12760;SDS011;6444;49.742;6.114;2023-05-07T08:44:37;12.05;;;10.40;;
12760;SDS011;6444;49.742;6.114;2023-05-07T08:47:04;21.30;;;17.35;;
12760;SDS011;6444;49.742;6.114;2023-05-07T08:49:30;26.87;;;23.27;;
12760;SDS011;6444;49.742;6.114;2023-05-07T08:51:57;48.55;;;42.65;;
12760;SDS011;6444;49.742;6.114;2023-05-07T08:54:23;44.97;;;40.00;;
12760;SDS011;6444;49.742;6.114;2023-05-07T08:56:51;22.10;;;18.85;;
12760;SDS011;6444;49.742;6.114;2023-05-07T08:59:17;3.00;;;2.70;;
12760;SDS011;6444;49.742;6.114;2023-05-07T09:01:44;3.65;;;2.67;;
12760;SDS011;6444;49.742;6.114;2023-05-07T09:04:11;7.07;;;6.32;;
12760;SDS011;6444;49.742;6.114;2023-05-07T09:06:37;7.57;;;6.87;;
12760;SDS011;6444;49.742;6.114;2023-05-07T09:09:04;3.50;;;2.78;;
12760;SDS011;6444;49.742;6.114;2023-05-07T09:11:31;14.90;;;12.43;;
12760;SDS011;6444;49.742;6.114;2023-05-07T09:13:58;15.02;;;13.52;;
12760;SDS011;6444;49.742;6.114;2023-05-07T09:16:25;17.12;;;15.35;;
12760;SDS011;6444;49.742;6.114;2023-05-07T09:18:51;3.47;;;3.17;;
12760;SDS011;6444;49.742;6.114;2023-05-07T09:21:18;2.90;;;2.58;;
12760;SDS011;6444;49.742;6.114;2023-05-07T09:23:44;4.30;;;3.90;;
12760;SDS011;6444;49.742;6.114;2023-05-07T09:26:12;2.53;;;1.70;;
12760;SDS011;6444;49.742;6.114;2023-05-07T09:28:39;7.35;;;6.55;;
12760;SDS011;6444;49.742;6.114;2023-05-07T09:31:05;54.72;;;48.87;;
12760;SDS011;6444;49.742;6.114;2023-05-07T09:33:32;4.62;;;3.85;;
12760;SDS011;6444;49.742;6.114;2023-05-07T09:36:01;25.58;;;21.73;;
12760;SDS011;6444;49.742;6.114;2023-05-07T09:38:25;58.47;;;52.62;;
12760;SDS011;6444;49.742;6.114;2023-05-07T09:41:05;13.88;;;12.40;;
12760;SDS011;6444;49.742;6.114;2023-05-07T09:43:34;10.07;;;9.07;;
12760;SDS011;6444;49.742;6.114;2023-05-07T09:46:02;2.95;;;2.30;;
12760;SDS011;6444;49.742;6.114;2023-05-07T09:48:40;1.83;;;1.73;;
12760;SDS011;6444;49.742;6.114;2023-05-07T09:51:10;2.05;;;1.87;;
12760;SDS011;6444;49.742;6.114;2023-05-07T09:53:33;3.05;;;2.20;;
12760;SDS011;6444;49.742;6.114;2023-05-07T09:56:00;3.85;;;3.53;;
12760;SDS011;6444;49.742;6.114;2023-05-07T09:58:27;15.48;;;13.68;;
12760;SDS011;6444;49.742;6.114;2023-05-07T10:00:53;2.30;;;2.10;;
12760;SDS011;6444;49.742;6.114;2023-05-07T10:03:20;1.80;;;1.70;;
12760;SDS011;6444;49.742;6.114;2023-05-07T10:05:47;2.80;;;2.10;;
12760;SDS011;6444;49.742;6.114;2023-05-07T10:08:14;1.98;;;1.77;;
12760;SDS011;6444;49.742;6.114;2023-05-07T10:10:41;2.70;;;2.08;;
12760;SDS011;6444;49.742;6.114;2023-05-07T10:13:07;3.33;;;2.75;;
12760;SDS011;6444;49.742;6.114;2023-05-07T10:15:34;3.17;;;2.00;;
12760;SDS011;6444;49.742;6.114;2023-05-07T10:18:00;1.92;;;1.70;;
12760;SDS011;6444;49.742;6.114;2023-05-07T10:20:28;5.65;;;3.25;;
12760;SDS011;6444;49.742;6.114;2023-05-07T10:22:54;1.70;;;1.60;;
12760;SDS011;6444;49.742;6.114;2023-05-07T10:25:23;2.35;;;1.50;;
12760;SDS011;6444;49.742;6.114;2023-05-07T10:27:48;3.45;;;1.55;;
12760;SDS011;6444;49.742;6.114;2023-05-07T10:30:22;4.60;;;4.20;;
12760;SDS011;6444;49.742;6.114;2023-05-07T10:32:56;10.15;;;9.10;;
12760;SDS011;6444;49.742;6.114;2023-05-07T10:35:23;4.62;;;3.62;;
12760;SDS011;6444;49.742;6.114;2023-05-07T10:37:46;2.97;;;2.08;;
12760;SDS011;6444;49.742;6.114;2023-05-07T10:40:13;1.90;;;1.70;;
12760;SDS011;6444;49.742;6.114;2023-05-07T10:42:52;2.03;;;1.33;;
12760;SDS011;6444;49.742;6.114;2023-05-07T10:45:12;2.10;;;1.40;;
12760;SDS011;6444;49.742;6.114;2023-05-07T10:48:03;2.15;;;1.70;;
12760;SDS011;6444;49.742;6.114;2023-05-07T10:52:32;5.65;;;2.90;;
12760;SDS011;6444;49.742;6.114;2023-05-07T10:57:44;2.40;;;2.20;;
12760;SDS011;6444;49.742;6.114;2023-05-07T11:07:57;6.37;;;2.08;;
12760;SDS011;6444;49.742;6.114;2023-05-07T11:10:46;3.42;;;3.05;;
12760;SDS011;6444;49.742;6.114;2023-05-07T11:12:50;3.28;;;2.42;;
12760;SDS011;6444;49.742;6.114;2023-05-07T11:15:33;2.75;;;1.83;;
12760;SDS011;6444;49.742;6.114;2023-05-07T11:18:01;2.62;;;2.42;;
12760;SDS011;6444;49.742;6.114;2023-05-07T11:20:47;3.15;;;2.12;;
12760;SDS011;6444;49.742;6.114;2023-05-07T11:26:00;17.62;;;15.73;;
12760;SDS011;6444;49.742;6.114;2023-05-07T11:28:30;7.85;;;7.12;;
12760;SDS011;6444;49.742;6.114;2023-05-07T11:30:57;2.58;;;1.85;;
12760;SDS011;6444;49.742;6.114;2023-05-07T11:36:04;14.13;;;5.85;;
12760;SDS011;6444;49.742;6.114;2023-05-07T11:38:34;6.78;;;4.47;;
12760;SDS011;6444;49.742;6.114;2023-05-07T11:40:58;8.25;;;5.18;;
12760;SDS011;6444;49.742;6.114;2023-05-07T11:43:24;4.12;;;3.12;;
12760;SDS011;6444;49.742;6.114;2023-05-07T11:45:51;4.35;;;2.33;;
12760;SDS011;6444;49.742;6.114;2023-05-07T11:48:17;8.23;;;5.18;;
12760;SDS011;6444;49.742;6.114;2023-05-07T11:50:54;5.00;;;3.22;;
12760;SDS011;6444;49.742;6.114;2023-05-07T11:53:25;2.40;;;2.10;;
12760;SDS011;6444;49.742;6.114;2023-05-07T11:55:52;3.75;;;2.28;;
12760;SDS011;6444;49.742;6.114;2023-05-07T11:58:22;3.03;;;2.30;;
12760;SDS011;6444;49.742;6.114;2023-05-07T12:00:51;2.40;;;1.90;;
12760;SDS011;6444;49.742;6.114;2023-05-07T12:03:17;3.35;;;2.35;;
12760;SDS011;6444;49.742;6.114;2023-05-07T12:05:47;2.62;;;1.98;;
12760;SDS011;6444;49.742;6.114;2023-05-07T12:08:14;3.60;;;2.70;;
12760;SDS011;6444;49.742;6.114;2023-05-07T12:10:41;2.35;;;2.15;;
12760;SDS011;6444;49.742;6.114;2023-05-07T12:13:41;3.03;;;1.73;;
12760;SDS011;6444;49.742;6.114;2023-05-07T12:15:46;4.12;;;2.97;;
12760;SDS011;6444;49.742;6.114;2023-05-07T12:18:12;2.20;;;2.00;;
12760;SDS011;6444;49.742;6.114;2023-05-07T12:20:40;4.20;;;2.10;;
12760;SDS011;6444;49.742;6.114;2023-05-07T12:23:07;2.67;;;1.67;;
12760;SDS011;6444;49.742;6.114;2023-05-07T12:25:40;2.28;;;1.73;;
12760;SDS011;6444;49.742;6.114;2023-05-07T12:28:07;3.55;;;1.67;;
12760;SDS011;6444;49.742;6.114;2023-05-07T12:30:39;2.55;;;1.75;;
12760;SDS011;6444;49.742;6.114;2023-05-07T12:33:05;2.50;;;2.30;;
12760;SDS011;6444;49.742;6.114;2023-05-07T12:35:36;2.40;;;1.83;;
12760;SDS011;6444;49.742;6.114;2023-05-07T12:37:59;3.03;;;2.20;;
12760;SDS011;6444;49.742;6.114;2023-05-07T12:40:44;3.92;;;3.17;;
12760;SDS011;6444;49.742;6.114;2023-05-07T12:43:17;4.05;;;2.83;;
12760;SDS011;6444;49.742;6.114;2023-05-07T12:45:46;3.80;;;3.50;;
12760;SDS011;6444;49.742;6.114;2023-05-07T12:48:12;2.75;;;2.55;;
12760;SDS011;6444;49.742;6.114;2023-05-07T12:50:39;3.37;;;2.70;;
12760;SDS011;6444;49.742;6.114;2023-05-07T12:53:06;2.97;;;2.55;;
12760;SDS011;6444;49.742;6.114;2023-05-07T12:55:39;2.80;;;2.10;;
12760;SDS011;6444;49.742;6.114;2023-05-07T12:58:00;2.25;;;1.80;;
12760;SDS011;6444;49.742;6.114;2023-05-07T13:00:36;2.08;;;1.90;;
12760;SDS011;6444;49.742;6.114;2023-05-07T13:03:02;2.78;;;2.05;;
12760;SDS011;6444;49.742;6.114;2023-05-07T13:05:28;2.62;;;1.90;;
12760;SDS011;6444;49.742;6.114;2023-05-07T13:07:55;4.20;;;3.75;;
12760;SDS011;6444;49.742;6.114;2023-05-07T13:10:25;8.35;;;7.40;;
12760;SDS011;6444;49.742;6.114;2023-05-07T13:12:48;7.53;;;6.00;;
12760;SDS011;6444;49.742;6.114;2023-05-07T13:15:15;2.78;;;1.67;;
12760;SDS011;6444;49.742;6.114;2023-05-07T13:17:41;3.03;;;1.67;;
12760;SDS011;6444;49.742;6.114;2023-05-07T13:20:11;4.10;;;1.90;;
12760;SDS011;6444;49.742;6.114;2023-05-07T13:22:40;3.17;;;2.00;;
12760;SDS011;6444;49.742;6.114;2023-05-07T13:25:07;3.20;;;1.83;;
12760;SDS011;6444;49.742;6.114;2023-05-07T13:27:34;1.52;;;1.42;;
12760;SDS011;6444;49.742;6.114;2023-05-07T13:30:04;2.30;;;2.05;;
12760;SDS011;6444;49.742;6.114;2023-05-07T13:32:30;4.75;;;1.70;;
12760;SDS011;6444;49.742;6.114;2023-05-07T13:34:56;4.10;;;1.75;;
12760;SDS011;6444;49.742;6.114;2023-05-07T13:37:23;2.03;;;1.77;;
12760;SDS011;6444;49.742;6.114;2023-05-07T13:39:50;2.22;;;1.77;;
12760;SDS011;6444;49.742;6.114;2023-05-07T13:42:17;2.20;;;1.90;;
12760;SDS011;6444;49.742;6.114;2023-05-07T13:44:44;4.07;;;1.90;;
12760;SDS011;6444;49.742;6.114;2023-05-07T13:47:10;2.85;;;1.80;;
12760;SDS011;6444;49.742;6.114;2023-05-07T13:49:37;3.80;;;2.40;;
12760;SDS011;6444;49.742;6.114;2023-05-07T13:52:04;4.22;;;1.80;;
12760;SDS011;6444;49.742;6.114;2023-05-07T13:54:30;3.47;;;1.90;;
12760;SDS011;6444;49.742;6.114;2023-05-07T13:56:57;4.60;;;2.30;;
12760;SDS011;6444;49.742;6.114;2023-05-07T13:59:23;2.22;;;1.70;;
12760;SDS011;6444;49.742;6.114;2023-05-07T14:01:50;3.70;;;2.67;;
12760;SDS011;6444;49.742;6.114;2023-05-07T14:04:17;5.70;;;2.87;;
12760;SDS011;6444;49.742;6.114;2023-05-07T14:06:44;3.60;;;2.15;;
12760;SDS011;6444;49.742;6.114;2023-05-07T14:09:11;5.50;;;2.15;;
12760;SDS011;6444;49.742;6.114;2023-05-07T14:11:37;2.85;;;2.10;;
12760;SDS011;6444;49.742;6.114;2023-05-07T14:14:04;3.85;;;2.50;;
12760;SDS011;6444;49.742;6.114;2023-05-07T14:16:31;2.70;;;2.33;;
12760;SDS011;6444;49.742;6.114;2023-05-07T14:18:57;4.85;;;2.40;;
12760;SDS011;6444;49.742;6.114;2023-05-07T14:21:24;3.80;;;2.60;;
12760;SDS011;6444;49.742;6.114;2023-05-07T14:23:51;4.25;;;2.30;;
12760;SDS011;6444;49.742;6.114;2023-05-07T14:26:17;3.10;;;2.35;;
12760;SDS011;6444;49.742;6.114;2023-05-07T14:28:45;4.00;;;2.30;;
12760;SDS011;6444;49.742;6.114;2023-05-07T14:31:11;9.35;;;4.22;;
12760;SDS011;6444;49.742;6.114;2023-05-07T14:33:38;5.55;;;3.03;;
12760;SDS011;6444;49.742;6.114;2023-05-07T14:36:04;5.37;;;2.50;;
12760;SDS011;6444;49.742;6.114;2023-05-07T14:38:31;2.97;;;2.20;;
12760;SDS011;6444;49.742;6.114;2023-05-07T14:40:58;2.62;;;2.03;;
12760;SDS011;6444;49.742;6.114;2023-05-07T14:43:25;3.55;;;2.08;;
12760;SDS011;6444;49.742;6.114;2023-05-07T14:45:52;2.67;;;2.00;;
12760;SDS011;6444;49.742;6.114;2023-05-07T14:48:18;5.20;;;2.15;;
12760;SDS011;6444;49.742;6.114;2023-05-07T14:50:46;3.78;;;2.55;;
12760;SDS011;6444;49.742;6.114;2023-05-07T14:53:12;2.12;;;1.90;;
12760;SDS011;6444;49.742;6.114;2023-05-07T14:55:39;2.70;;;2.00;;
12760;SDS011;6444;49.742;6.114;2023-05-07T14:58:06;2.00;;;1.60;;
12760;SDS011;6444;49.742;6.114;2023-05-07T15:00:33;3.33;;;1.98;;
12760;SDS011;6444;49.742;6.114;2023-05-07T15:03:04;3.08;;;2.28;;
12760;SDS011;6444;49.742;6.114;2023-05-07T15:05:31;2.60;;;1.83;;
12760;SDS011;6444;49.742;6.114;2023-05-07T15:07:58;3.90;;;2.15;;
12760;SDS011;6444;49.742;6.114;2023-05-07T15:10:25;2.85;;;2.35;;
12760;SDS011;6444;49.742;6.114;2023-05-07T15:12:52;3.08;;;2.00;;